Pointe-Calumet, Canada
Current Conditions -  °F | °C
As of 8:00 PM on Tuesday 27 Jan 2015 (Local Time) from CYUL Reporting Station
Light Snow Light Snow  
Wind Chill:   Ceiling: 8200
Heat Index: 14°   Visibility: 15mi
Dew Point: -4°   Wind: 13mph
Humidity: 45%   Direction: 10°N
Pressure: 30.03"   Gusts: NA
Location:  45.5°N, 73.97°W
Report Text: CYUL 280100Z 01011KT 15SM -SN BKN082 OVC120 M10/M20 A3003 RMK AC7AC1 SLP172
Loading
Personal Weather Stations






























Interactive Weather Map New forecast layout! Learn more

10-Day Weather Forecast

Advertisements
Track Severe Weather on mobile